Time;durP1;ratioP1;P1;durP2;ratioP2;P2;SDS_P1;SDS_P2;PMS_P1;PMS_P2;Temp;Humidity;BMP_temperature;BMP_pressure;BME280_temperature;BME280_humidity;BME280_pressure;Samples;Min_cycle;Max_cycle;Signal;HPM_P1;HPM_P2
2022/08/21 00:00:14;;;;;;;31.77;5.20;;;;;;;22.20;69.47;99869.69;1647744;86;21049;-73
2022/08/21 00:02:47;;;;;;;26.35;4.92;;;;;;;22.18;69.34;99871.21;1647609;87;21346;-73
2022/08/21 00:05:15;;;;;;;32.23;4.83;;;;;;;22.16;69.22;99870.60;1647690;87;21369;-73
2022/08/21 00:07:41;;;;;;;28.12;4.65;;;;;;;22.13;69.05;99864.83;1647590;86;21068;-73
2022/08/21 00:10:09;;;;;;;29.32;5.67;;;;;;;22.09;68.85;99867.60;1647856;87;22408;-73
2022/08/21 00:12:37;;;;;;;20.80;5.00;;;;;;;22.04;68.71;99860.14;1647560;87;21547;-74
2022/08/21 00:15:07;;;;;;;37.33;5.70;;;;;;;22.02;68.54;99859.53;1647550;87;21962;-74
2022/08/21 00:17:33;;;;;;;30.57;5.20;;;;;;;22.00;68.34;99869.16;1657182;85;21109;-73
2022/08/21 00:19:59;;;;;;;31.37;4.95;;;;;;;21.97;68.18;99869.55;1673571;85;21044;-74
2022/08/21 00:22:26;;;;;;;24.12;4.70;;;;;;;21.93;68.12;99869.67;1673780;85;22160;-74
2022/08/21 00:24:52;;;;;;;25.27;4.95;;;;;;;21.91;68.10;99868.23;1673438;85;21475;-74
2022/08/21 00:27:19;;;;;;;28.05;4.87;;;;;;;21.89;67.88;99868.94;1673853;85;21113;-73
2022/08/21 00:29:46;;;;;;;28.98;5.60;;;;;;;21.87;67.88;99858.91;1673501;85;21091;-73
2022/08/21 00:32:12;;;;;;;24.85;4.70;;;;;;;21.87;67.79;99863.77;1673805;85;21511;-73
2022/08/21 00:34:40;;;;;;;24.95;4.55;;;;;;;21.87;67.73;99866.98;1673525;85;22884;-73
2022/08/21 00:37:07;;;;;;;23.02;4.92;;;;;;;21.85;67.64;99869.05;1673652;85;21764;-73
2022/08/21 00:39:34;;;;;;;29.57;5.20;;;;;;;21.82;67.54;99865.45;1673778;85;21093;-73
2022/08/21 00:42:00;;;;;;;29.18;4.58;;;;;;;21.80;67.54;99860.77;1673509;85;21085;-74
2022/08/21 00:44:27;;;;;;;26.17;4.58;;;;;;;21.78;67.52;99865.02;1673791;85;20960;-73
2022/08/21 00:46:53;;;;;;;31.50;5.17;;;;;;;21.75;67.51;99861.41;1673490;85;22901;-73
2022/08/21 00:49:20;;;;;;;27.02;5.08;;;;;;;21.73;67.48;99865.34;1673708;85;21539;-73
2022/08/21 00:51:53;;;;;;;26.77;4.72;;;;;;;21.70;67.42;99856.63;1673508;85;21056;-74
2022/08/21 00:54:22;;;;;;;29.52;4.87;;;;;;;21.69;67.34;99852.81;1673530;85;21024;-74
2022/08/21 00:56:53;;;;;;;22.55;4.58;;;;;;;21.69;67.26;99850.13;1673518;85;21028;-73
2022/08/21 00:59:20;;;;;;;30.43;5.45;;;;;;;21.68;67.18;99857.88;1673800;85;21820;-74
2022/08/21 01:01:47;;;;;;;29.77;4.70;;;;;;;21.67;67.14;99854.88;1673454;85;21076;-72
2022/08/21 01:04:14;;;;;;;24.27;4.75;;;;;;;21.65;67.14;99843.52;1673745;85;21437;-72
2022/08/21 01:06:41;;;;;;;29.70;4.62;;;;;;;21.61;67.07;99848.46;1673504;85;21734;-74
2022/08/21 01:09:08;;;;;;;28.07;5.12;;;;;;;21.58;67.09;99842.16;1673521;85;21060;-73
2022/08/21 01:11:35;;;;;;;27.77;4.87;;;;;;;21.57;67.07;99837.00;1674673;85;21829;-73
2022/08/21 01:14:02;;;;;;;22.10;4.75;;;;;;;21.53;67.06;99833.91;1673519;84;21081;-73
2022/08/21 01:16:29;;;;;;;34.03;5.00;;;;;;;21.49;67.10;99823.24;1673634;84;21151;-73
2022/08/21 01:18:55;;;;;;;20.17;4.55;;;;;;;21.47;67.16;99821.28;1673481;85;21040;-74
2022/08/21 01:21:24;;;;;;;25.52;5.35;;;;;;;21.43;67.21;99821.40;1673520;85;21048;-74
2022/08/21 01:23:52;;;;;;;25.50;5.00;;;;;;;21.44;67.20;99821.70;1673531;84;21964;-74
2022/08/21 01:26:24;;;;;;;21.40;4.25;;;;;;;21.42;67.21;99826.44;1673411;85;21047;-74
2022/08/21 01:28:56;;;;;;;30.05;4.62;;;;;;;21.39;67.21;99825.51;1673530;85;21326;-73
2022/08/21 01:31:24;;;;;;;25.60;4.60;;;;;;;21.36;67.27;99828.62;1673633;85;21048;-73
2022/08/21 01:33:51;;;;;;;26.12;5.22;;;;;;;21.33;67.32;99827.70;1673551;85;21048;-73
2022/08/21 01:36:18;;;;;;;30.20;5.35;;;;;;;21.33;67.33;99827.17;1673447;85;21543;-73
2022/08/21 01:38:44;;;;;;;32.00;4.67;;;;;;;21.33;67.36;99826.35;1673679;85;21722;-73
2022/08/21 01:41:11;;;;;;;31.40;5.05;;;;;;;21.31;67.41;99820.33;1673717;85;21040;-73
2022/08/21 01:43:37;;;;;;;27.93;4.67;;;;;;;21.28;67.48;99816.20;1673474;85;21120;-73
2022/08/21 01:46:04;;;;;;;20.62;4.00;;;;;;;21.26;67.53;99812.91;1673486;85;21345;-74
2022/08/21 01:48:30;;;;;;;26.17;4.90;;;;;;;21.25;67.48;99818.45;1673434;85;23006;-73
2022/08/21 01:50:57;;;;;;;23.75;4.47;;;;;;;21.23;67.42;99814.63;1673467;85;21659;-73
2022/08/21 01:53:23;;;;;;;24.90;4.33;;;;;;;21.24;67.38;99814.94;1673751;85;21040;-73
2022/08/21 01:55:50;;;;;;;24.70;4.33;;;;;;;21.23;67.39;99817.80;1673388;85;21040;-73
2022/08/21 01:58:16;;;;;;;28.60;5.40;;;;;;;21.20;67.40;99824.94;1673550;85;21044;-73
2022/08/21 02:00:43;;;;;;;28.73;5.05;;;;;;;21.21;67.36;99818.53;1673480;85;21853;-73
2022/08/21 02:03:09;;;;;;;29.57;4.65;;;;;;;21.23;67.32;99820.48;1673412;85;21033;-73
2022/08/21 02:05:37;;;;;;;23.20;4.30;;;;;;;21.22;67.35;99821.52;1673440;85;21803;-73
2022/08/21 02:08:04;;;;;;;25.68;4.47;;;;;;;21.20;67.35;99821.73;1673476;85;21779;-73
2022/08/21 02:10:32;;;;;;;26.07;4.67;;;;;;;21.19;67.36;99824.63;1608902;85;21084;-73
2022/08/21 02:13:00;;;;;;;21.70;4.70;;;;;;;21.18;67.22;99831.03;1673473;85;21975;-73
2022/08/21 02:15:28;;;;;;;34.85;4.87;;;;;;;21.15;67.24;99834.45;1673382;85;21036;-73
2022/08/21 02:17:58;;;;;;;27.98;4.78;;;;;;;21.14;67.24;99828.77;1672137;84;21048;-72
2022/08/21 02:20:38;;;;;;;24.40;4.22;;;;;;;21.13;67.28;99829.80;1680889;85;21038;-73
2022/08/21 02:23:06;;;;;;;27.00;4.22;;;;;;;21.12;67.31;99829.98;1680092;85;21041;-72
2022/08/21 02:25:34;;;;;;;28.80;4.72;;;;;;;21.07;67.42;99833.28;1680555;85;21985;-73
2022/08/21 02:28:04;;;;;;;20.08;4.12;;;;;;;21.04;67.57;99831.02;1680775;85;21037;-73
2022/08/21 02:30:37;;;;;;;36.55;4.95;;;;;;;21.03;67.71;99831.20;1680617;85;21298;-72
2022/08/21 02:33:05;;;;;;;28.70;5.20;;;;;;;21.01;67.78;99834.09;1678525;85;21054;-73
2022/08/21 02:35:32;;;;;;;23.40;4.75;;;;;;;20.98;67.97;99829.12;1678311;85;21036;-74
2022/08/21 02:38:03;;;;;;;24.35;4.60;;;;;;;20.98;68.07;99835.84;1680592;85;21946;-73
2022/08/21 02:40:32;;;;;;;28.20;4.65;;;;;;;20.98;68.17;99833.67;1680536;85;21842;-73
2022/08/21 02:42:59;;;;;;;22.93;4.67;;;;;;;20.96;68.26;99835.22;1678343;85;21288;-73
2022/08/21 02:45:27;;;;;;;25.25;4.58;;;;;;;20.92;68.28;99842.01;1678581;85;21077;-73
2022/08/21 02:47:58;;;;;;;34.27;5.25;;;;;;;20.90;68.25;99835.19;1680628;85;21037;-73
2022/08/21 02:50:32;;;;;;;22.87;4.40;;;;;;;20.89;68.21;99835.71;1679776;85;21840;-73
2022/08/21 02:52:58;;;;;;;23.87;4.37;;;;;;;20.90;68.10;99836.53;1678121;85;21051;-73
2022/08/21 02:55:27;;;;;;;31.25;4.58;;;;;;;20.89;68.05;99837.56;1678627;85;21045;-74
2022/08/21 02:57:54;;;;;;;30.77;4.87;;;;;;;20.86;67.97;99842.83;1680550;85;21084;-74
2022/08/21 03:00:22;;;;;;;26.20;4.62;;;;;;;20.86;67.95;99844.17;1680702;85;21049;-73
2022/08/21 03:02:49;;;;;;;31.77;4.28;;;;;;;20.84;67.89;99847.06;1680546;85;21987;-73
2022/08/21 03:05:16;;;;;;;27.35;4.72;;;;;;;20.83;67.89;99852.61;1678260;85;21029;-73
2022/08/21 03:07:46;;;;;;;19.82;4.20;;;;;;;20.83;67.91;99856.64;1678375;85;21029;-74
2022/08/21 03:10:13;;;;;;;19.48;4.37;;;;;;;20.83;67.95;99859.32;1680507;85;21072;-73
2022/08/21 03:12:40;;;;;;;20.77;4.28;;;;;;;20.82;67.98;99856.33;1680450;85;21295;-73
2022/08/21 03:15:10;;;;;;;23.32;4.25;;;;;;;20.81;68.01;99864.06;1678232;85;21834;-73
2022/08/21 03:17:37;;;;;;;26.15;4.85;;;;;;;20.78;68.05;99862.63;1678327;85;21085;-73
2022/08/21 03:20:06;;;;;;;22.27;4.90;;;;;;;20.75;68.10;99866.20;1680525;85;21077;-73
2022/08/21 03:22:34;;;;;;;18.25;4.50;;;;;;;20.73;68.08;99875.80;1680539;85;21021;-73
2022/08/21 03:25:00;;;;;;;27.95;5.00;;;;;;;20.77;68.09;99876.25;1680598;85;21093;-73
2022/08/21 03:27:27;;;;;;;25.72;4.75;;;;;;;20.74;68.08;99886.02;1680627;85;21524;-73
2022/08/21 03:29:54;;;;;;;18.92;4.25;;;;;;;20.71;68.11;99887.77;1678536;85;21517;-73
2022/08/21 03:32:21;;;;;;;22.05;4.67;;;;;;;20.67;68.14;99888.69;1678447;85;21505;-73
2022/08/21 03:34:47;;;;;;;27.75;4.72;;;;;;;20.65;68.11;99889.38;1680914;85;21497;-72
2022/08/21 03:37:14;;;;;;;26.65;4.45;;;;;;;20.64;68.11;99891.75;1680705;85;21096;-73
2022/08/21 03:39:41;;;;;;;26.05;5.17;;;;;;;20.64;68.15;99900.31;1678724;85;21795;-73
2022/08/21 03:42:09;;;;;;;26.48;4.22;;;;;;;20.65;68.12;99905.48;1678372;85;21025;-72
2022/08/21 03:44:35;;;;;;;25.27;4.20;;;;;;;20.67;68.12;99905.30;1680937;85;21835;-73
2022/08/21 03:47:02;;;;;;;23.30;4.65;;;;;;;20.66;68.09;99912.53;1680700;85;21060;-73
2022/08/21 03:49:28;;;;;;;26.25;4.25;;;;;;;20.64;68.18;99909.19;1680723;85;21081;-73
2022/08/21 03:51:54;;;;;;;26.42;4.55;;;;;;;20.66;68.19;99917.90;1680940;85;21902;-73
2022/08/21 03:54:21;;;;;;;25.45;4.35;;;;;;;20.65;68.18;99908.16;1678386;85;21040;-73
2022/08/21 03:56:47;;;;;;;24.07;4.45;;;;;;;20.69;68.15;99909.95;1678643;85;21365;-73
2022/08/21 03:59:14;;;;;;;23.83;3.92;;;;;;;20.71;68.18;99907.89;1680642;85;21096;-74
2022/08/21 04:01:42;;;;;;;18.42;4.08;;;;;;;20.71;68.18;99907.38;1680909;85;21033;-74
2022/08/21 04:04:08;;;;;;;25.52;4.37;;;;;;;20.73;68.19;99908.00;1633465;85;22227;-72
2022/08/21 04:06:35;;;;;;;24.35;4.65;;;;;;;20.74;68.24;99911.00;1678440;85;21493;-74
2022/08/21 04:09:02;;;;;;;19.90;4.30;;;;;;;20.78;68.32;99914.95;1678476;85;21025;-73
2022/08/21 04:11:28;;;;;;;21.17;4.05;;;;;;;20.80;68.37;99916.09;1680670;85;21033;-72
2022/08/21 04:13:55;;;;;;;25.77;4.65;;;;;;;20.80;68.44;99920.95;1680693;85;21307;-73
2022/08/21 04:16:22;;;;;;;24.05;4.90;;;;;;;20.83;68.54;99913.00;1680674;85;21836;-73
2022/08/21 04:18:50;;;;;;;20.80;4.22;;;;;;;20.86;68.60;99912.11;1680467;85;21034;-72
2022/08/21 04:21:17;;;;;;;24.55;4.35;;;;;;;20.91;68.65;99918.72;1678594;85;21085;-73
2022/08/21 04:23:43;;;;;;;29.45;4.83;;;;;;;20.92;68.77;99918.52;1678412;85;21085;-73
2022/08/21 04:26:10;;;;;;;18.02;4.40;;;;;;;20.94;68.87;99923.69;1680664;85;21041;-74
2022/08/21 04:28:36;;;;;;;23.20;4.78;;;;;;;20.97;68.94;99915.25;1680618;85;21903;-72
2022/08/21 04:31:03;;;;;;;29.05;4.40;;;;;;;20.97;68.90;99924.65;1678360;85;21038;-74
2022/08/21 04:33:29;;;;;;;30.20;5.17;;;;;;;20.98;68.96;99924.96;1678726;85;21041;-72
2022/08/21 04:39:26;;;;;;;28.02;4.78;;;;;;;20.99;68.84;99916.70;1680633;85;21053;-73
2022/08/21 04:41:53;;;;;;;25.02;4.20;;;;;;;21.02;68.89;99918.14;1680687;85;21939;-73
2022/08/21 04:44:20;;;;;;;27.67;4.50;;;;;;;21.07;68.97;99916.53;1678218;85;21513;-72
2022/08/21 04:46:46;;;;;;;24.57;4.70;;;;;;;21.10;68.92;99922.83;1678294;85;21040;-74
2022/08/21 04:49:12;;;;;;;26.17;4.95;;;;;;;21.12;68.86;99909.20;1680593;85;21068;-72
2022/08/21 04:51:39;;;;;;;23.47;4.47;;;;;;;21.17;68.81;99920.18;1680635;85;21096;-73
2022/08/21 04:54:19;;;;;;;24.60;4.65;;;;;;;21.19;68.76;99912.73;1678389;85;21812;-76
2022/08/21 04:56:56;;;;;;;21.97;3.85;;;;;;;21.23;68.65;99909.13;1678334;85;21002;-76
2022/08/21 04:59:26;;;;;;;35.70;4.42;;;;;;;21.29;68.59;99908.36;1678451;85;21021;-76
2022/08/21 05:01:56;;;;;;;25.45;4.40;;;;;;;21.35;68.42;99915.62;1680246;85;21058;-75
2022/08/21 05:04:24;;;;;;;26.97;4.35;;;;;;;21.37;68.22;99911.69;1680609;85;21092;-74
2022/08/21 05:06:52;;;;;;;26.68;4.87;;;;;;;21.43;68.20;99906.86;1678328;85;22221;-75
2022/08/21 05:09:18;;;;;;;24.57;4.72;;;;;;;21.50;68.01;99905.51;1678581;85;21075;-75
2022/08/21 05:11:45;;;;;;;25.30;4.42;;;;;;;21.58;67.83;99902.63;1680607;85;21078;-75
2022/08/21 05:14:12;;;;;;;24.10;4.97;;;;;;;21.66;67.62;99905.64;1680558;85;21094;-73
2022/08/21 05:16:38;;;;;;;28.27;4.55;;;;;;;21.73;67.35;99902.97;1678339;85;21089;-75
2022/08/21 05:19:06;;;;;;;21.87;3.70;;;;;;;21.80;67.08;99911.33;1674305;85;21806;-74
2022/08/21 05:21:34;;;;;;;29.45;4.50;;;;;;;21.83;66.45;99909.59;1663829;86;21073;-75
2022/08/21 05:24:01;;;;;;;20.77;4.65;;;;;;;21.81;65.97;99914.36;1664027;86;21077;-76
2022/08/21 05:26:29;;;;;;;27.37;4.28;;;;;;;21.80;65.70;99906.47;1663978;86;21042;-76
2022/08/21 05:28:55;;;;;;;24.47;4.22;;;;;;;21.81;65.62;99906.78;1664008;86;21053;-75
2022/08/21 05:31:22;;;;;;;22.10;4.28;;;;;;;21.82;65.44;99907.12;1664086;86;21734;-74
2022/08/21 05:33:49;;;;;;;68.67;50.05;;;;;;;21.84;65.40;99906.39;1664023;86;21062;-75
2022/08/21 05:36:16;;;;;;;29.07;8.40;;;;;;;21.91;65.14;99904.53;1664221;86;21085;-74
2022/08/21 05:38:43;;;;;;;29.35;6.37;;;;;;;21.93;64.87;99906.49;1666956;86;21045;-75
2022/08/21 05:41:09;;;;;;;22.25;5.65;;;;;;;21.93;64.54;99909.18;1664090;86;21785;-76
2022/08/21 05:43:36;;;;;;;24.85;4.37;;;;;;;21.92;64.36;99903.50;1664268;86;21804;-76
2022/08/21 05:46:04;;;;;;;27.17;4.05;;;;;;;21.97;64.09;99907.72;1664196;86;21292;-76
2022/08/21 05:48:32;;;;;;;19.48;3.80;;;;;;;21.99;63.98;99906.98;1664025;86;21097;-75
2022/08/21 05:51:00;;;;;;;22.58;4.12;;;;;;;22.04;63.91;99910.42;1664030;86;21058;-76
2022/08/21 05:53:27;;;;;;;24.82;4.15;;;;;;;22.10;63.92;99921.22;1667117;85;21765;-76
2022/08/21 05:55:53;;;;;;;18.82;3.47;;;;;;;22.16;63.55;99920.88;1664158;86;22785;-74
2022/08/21 05:58:21;;;;;;;22.90;4.00;;;;;;;22.15;63.36;99913.33;1663903;86;21505;-76
2022/08/21 06:00:48;;;;;;;21.85;3.70;;;;;;;22.15;63.04;99922.75;1664169;86;21045;-76
2022/08/21 06:03:20;;;;;;;29.67;4.60;;;;;;;22.16;63.00;99919.02;1663952;86;21054;-76
2022/08/21 06:05:47;;;;;;;21.23;3.98;;;;;;;22.15;62.96;99920.58;1664319;86;21089;-77
2022/08/21 06:08:17;;;;;;;21.15;4.15;;;;;;;22.17;63.01;99926.57;1663979;86;21823;-76
2022/08/21 06:10:44;;;;;;;24.95;5.03;;;;;;;22.21;62.69;99920.58;1663951;86;21318;-76
2022/08/21 06:13:11;;;;;;;24.90;4.10;;;;;;;22.23;62.69;99912.30;1664022;86;21308;-75
2022/08/21 06:15:38;;;;;;;22.15;4.10;;;;;;;22.31;62.97;99909.91;1663909;86;21033;-76
2022/08/21 06:18:05;;;;;;;26.57;4.47;;;;;;;22.36;62.74;99908.75;1663905;86;21046;-76
2022/08/21 06:20:32;;;;;;;23.55;4.10;;;;;;;22.41;62.65;99911.66;1674498;85;21832;-75
2022/08/21 06:22:58;;;;;;;20.90;4.05;;;;;;;22.46;62.71;99911.84;1678297;85;21315;-76
2022/08/21 06:25:25;;;;;;;26.35;4.45;;;;;;;22.52;62.08;99924.47;1678362;85;21292;-75
2022/08/21 06:27:51;;;;;;;26.10;4.30;;;;;;;22.50;62.12;99924.67;1678550;85;21065;-76
2022/08/21 06:30:18;;;;;;;22.77;4.30;;;;;;;22.54;61.95;99923.20;1678385;85;21129;-76
2022/08/21 06:36:15;;;;;;;25.15;4.50;;;;;;;22.62;61.92;99924.85;1678315;85;21081;-76
2022/08/21 06:38:41;;;;;;;24.20;4.83;;;;;;;22.70;61.85;99919.24;1678328;85;21032;-76
2022/08/21 06:41:08;;;;;;;23.20;4.05;;;;;;;22.73;61.01;99924.20;1678582;85;21120;-78
2022/08/21 06:43:34;;;;;;;28.60;5.03;;;;;;;22.67;61.05;99925.03;1678372;85;21021;-77
2022/08/21 06:46:01;;;;;;;23.70;5.42;;;;;;;22.62;61.09;99920.81;1678330;85;22338;-78
2022/08/21 06:48:29;;;;;;;31.97;5.03;;;;;;;22.64;61.59;99927.33;1680744;85;21060;-78
2022/08/21 06:50:55;;;;;;;26.80;5.62;;;;;;;22.65;61.29;99919.55;1680536;85;21056;-77
2022/08/21 06:53:22;;;;;;;31.62;5.80;;;;;;;22.65;61.33;99921.73;1678187;85;21137;-76
2022/08/21 06:55:48;;;;;;;26.55;4.50;;;;;;;22.67;61.17;99917.47;1677592;85;21555;-76
2022/08/21 06:58:15;;;;;;;24.90;4.47;;;;;;;22.71;61.16;99918.72;1679720;85;22937;-78
2022/08/21 07:00:45;;;;;;;18.48;3.52;;;;;;;22.73;61.06;99917.46;1679220;85;21121;-77
2022/08/21 07:03:36;;;;;;;21.60;4.53;;;;;;;22.78;61.10;99906.90;1676967;85;21061;-76
2022/08/21 07:06:04;;;;;;;35.63;4.58;;;;;;;22.84;60.90;99910.09;1677242;85;21108;-77
2022/08/21 07:08:31;;;;;;;24.65;4.37;;;;;;;22.93;60.88;99911.21;1676637;85;21068;-77
2022/08/21 07:11:01;;;;;;;24.67;4.22;;;;;;;23.02;60.79;99914.80;1678724;85;21929;-77
2022/08/21 07:13:28;;;;;;;13.20;3.40;;;;;;;23.07;60.00;99913.65;1675746;85;21314;-78
2022/08/21 07:15:54;;;;;;;26.68;3.85;;;;;;;23.04;60.25;99914.58;1676501;85;21132;-77
2022/08/21 07:18:21;;;;;;;27.40;4.67;;;;;;;23.04;59.99;99922.14;1676085;85;21064;-77
2022/08/21 07:20:47;;;;;;;29.67;3.77;;;;;;;23.06;59.68;99915.19;1676109;85;21124;-78
2022/08/21 07:23:24;;;;;;;27.52;3.80;;;;;;;23.08;59.96;99915.30;1676032;85;21934;-77
2022/08/21 07:25:51;;;;;;;24.37;4.03;;;;;;;23.06;60.17;99902.54;1676302;85;21564;-76
2022/08/21 07:28:17;;;;;;;27.37;4.10;;;;;;;23.12;60.18;99905.73;1675949;85;21136;-78
2022/08/21 07:30:44;;;;;;;26.70;4.33;;;;;;;23.17;59.38;99906.98;1675964;85;21064;-78
2022/08/21 07:33:10;;;;;;;21.80;4.08;;;;;;;23.17;59.60;99910.50;1676198;85;21089;-76
2022/08/21 07:35:38;;;;;;;22.80;4.30;;;;;;;23.18;59.80;99916.19;1675980;85;21812;-78
2022/08/21 07:38:04;;;;;;;28.62;9.20;;;;;;;23.25;59.68;99913.44;1677182;85;21026;-78
2022/08/21 07:40:31;;;;;;;24.75;5.80;;;;;;;23.38;59.76;99917.42;1678194;85;21105;-77
2022/08/21 07:42:57;;;;;;;26.35;8.18;;;;;;;23.52;59.42;99914.94;1677926;85;21081;-78
2022/08/21 07:45:27;;;;;;;33.42;6.55;;;;;;;23.66;59.40;99916.55;1677578;85;21125;-79
2022/08/21 07:47:53;;;;;;;24.82;4.62;;;;;;;23.80;58.71;99914.57;1677012;85;21838;-78
2022/08/21 07:50:19;;;;;;;23.12;4.03;;;;;;;23.83;57.52;99906.03;1676111;85;21886;-77
2022/08/21 07:52:47;;;;;;;24.98;4.33;;;;;;;23.75;57.38;99906.33;1678238;85;21073;-78
2022/08/21 07:55:18;;;;;;;21.48;4.30;;;;;;;23.68;58.04;99909.59;1678342;85;21053;-75
2022/08/21 07:57:46;;;;;;;18.15;3.65;;;;;;;23.72;58.39;99904.05;1678600;85;21460;-76
2022/08/21 08:00:16;;;;;;;20.52;3.85;;;;;;;23.81;57.72;99902.73;1678207;85;22916;-77
2022/08/21 08:02:53;;;;;;;20.70;4.17;;;;;;;23.80;57.33;99906.48;1678521;85;21308;-76
2022/08/21 08:05:18;;;;;;;18.70;3.72;;;;;;;23.80;57.88;99912.40;1677192;85;21259;-74
2022/08/21 08:07:45;;;;;;;25.60;4.00;;;;;;;23.83;57.51;99901.98;1680785;85;21081;-81
2022/08/21 08:10:11;;;;;;;30.12;4.28;;;;;;;23.89;58.08;99904.34;1680644;85;21804;-77
2022/08/21 08:12:39;;;;;;;25.77;3.90;;;;;;;23.99;57.58;99908.19;1678494;85;21806;-75
2022/08/21 08:15:09;;;;;;;28.17;4.00;;;;;;;24.04;57.26;99905.38;1678222;85;21077;-74
2022/08/21 08:17:37;;;;;;;28.60;4.12;;;;;;;24.06;57.49;99910.84;1680467;85;21045;-76
2022/08/21 08:20:07;;;;;;;27.62;4.10;;;;;;;24.12;57.15;99910.46;1680488;85;21208;-73
2022/08/21 08:22:35;;;;;;;22.93;4.00;;;;;;;24.09;56.47;99913.09;1678185;85;21089;-78
2022/08/21 08:25:02;;;;;;;24.90;6.20;;;;;;;24.10;56.97;99909.86;1664212;85;21897;-78
2022/08/21 08:27:29;;;;;;;38.90;14.10;;;;;;;24.23;57.40;99907.89;1663932;86;21037;-75
2022/08/21 08:29:55;;;;;;;29.48;7.03;;;;;;;24.34;56.18;99902.31;1664006;86;21033;-77
2022/08/21 08:32:22;;;;;;;25.00;4.67;;;;;;;24.48;56.22;99909.20;1664233;86;21057;-73
2022/08/21 08:34:51;;;;;;;19.90;4.03;;;;;;;24.54;55.49;99908.33;1663902;86;21449;-83
2022/08/21 08:40:47;;;;;;;24.67;4.25;;;;;;;24.60;55.35;99910.64;1663971;86;21053;-77
2022/08/21 08:44:00;;;;;;;21.93;4.28;;;;;;;24.67;54.97;99902.47;1663877;86;21022;-79
2022/08/21 08:46:43;;;;;;;30.43;4.92;;;;;;;24.70;54.53;99902.83;1636930;86;21081;-83
2022/08/21 08:49:36;;;;;;;26.48;4.12;;;;;;;24.64;53.98;99902.41;1637049;87;21109;-80
2022/08/21 08:52:26;;;;;;;19.98;4.00;;;;;;;24.65;54.71;99904.58;1616205;88;21859;-79
2022/08/21 08:55:07;;;;;;;25.35;3.50;;;;;;;24.76;54.89;99901.95;1634492;87;21053;-79
2022/08/21 08:57:33;;;;;;;21.12;4.15;;;;;;;24.88;54.69;99903.36;1635956;87;21045;-81
2022/08/21 09:00:05;;;;;;;30.92;13.08;;;;;;;24.93;54.63;99899.46;1636866;87;21077;-81
2022/08/21 09:02:33;;;;;;;32.00;4.78;;;;;;;25.05;54.79;99900.89;1636881;87;21053;-79
2022/08/21 09:05:00;;;;;;;26.73;4.53;;;;;;;25.19;54.00;99894.28;1637296;87;22609;-75
2022/08/21 09:08:02;;;;;;;20.60;3.85;;;;;;;25.32;53.95;99889.20;1636837;87;21375;-78
2022/08/21 09:10:59;;;;;;;19.82;4.72;;;;;;;25.38;53.33;99889.13;1636944;87;21328;-79
2022/08/21 09:13:49;;;;;;;49.30;32.17;;;;;;;25.43;53.97;99887.59;1636986;87;21304;-78
2022/08/21 09:16:39;;;;;;;32.50;4.78;;;;;;;25.56;53.93;99883.32;1648226;86;21114;-79
2022/08/21 09:19:41;;;;;;;26.77;4.55;;;;;;;25.62;53.04;99881.05;1664199;86;21825;-82
2022/08/21 09:22:28;;;;;;;21.33;4.40;;;;;;;25.67;52.82;99873.05;1663910;86;21038;-79
2022/08/21 09:25:08;;;;;;;29.35;4.22;;;;;;;25.80;52.40;99878.30;1664027;85;21062;-77
2022/08/21 09:27:36;;;;;;;19.27;3.42;;;;;;;25.92;52.04;99881.84;1648295;86;21066;-76
2022/08/21 09:30:05;;;;;;;26.93;4.20;;;;;;;26.06;51.62;99886.51;1663926;86;21766;-80
2022/08/21 09:32:33;;;;;;;27.00;4.22;;;;;;;26.06;51.45;99879.74;1664272;86;23134;-76
2022/08/21 09:35:08;;;;;;;28.15;7.87;;;;;;;26.04;51.27;99885.07;1664017;86;21043;-78
2022/08/21 09:38:02;;;;;;;26.50;4.15;;;;;;;26.04;50.42;99885.07;1645774;86;21054;-76
2022/08/21 09:40:42;;;;;;;29.35;4.30;;;;;;;26.05;50.58;99882.66;1664022;86;21033;-76
2022/08/21 09:43:17;;;;;;;27.02;4.62;;;;;;;26.12;51.01;99886.91;1664031;86;21576;-76
2022/08/21 09:45:44;;;;;;;26.77;4.20;;;;;;;26.18;50.63;99896.80;1663998;86;22733;-76
2022/08/21 09:48:21;;;;;;;26.93;4.55;;;;;;;26.25;50.63;99892.09;1664147;86;21030;-77
2022/08/21 09:50:49;;;;;;;24.07;4.10;;;;;;;26.37;50.40;99888.55;1664152;86;21049;-77
2022/08/21 09:53:25;;;;;;;23.18;4.03;;;;;;;26.56;50.62;99889.27;1664109;86;21113;-76
2022/08/21 09:58:48;;;;;;;23.05;3.50;;;;;;;26.92;48.63;99883.50;1656742;86;21851;-76
2022/08/21 10:01:21;;;;;;;26.35;4.25;;;;;;;27.08;48.72;99873.30;1664177;86;21054;-75
2022/08/21 10:03:48;;;;;;;31.37;4.53;;;;;;;27.24;48.72;99879.84;1664107;86;21038;-76
2022/08/21 10:06:25;;;;;;;26.27;4.00;;;;;;;27.44;48.54;99875.31;1664212;86;21042;-75
2022/08/21 10:09:09;;;;;;;24.40;4.47;;;;;;;27.58;47.45;99875.81;1663974;86;21138;-77
2022/08/21 10:11:36;;;;;;;29.50;4.35;;;;;;;27.71;47.31;99875.54;1648322;86;22835;-76
2022/08/21 10:14:35;;;;;;;22.48;3.80;;;;;;;27.90;47.57;99875.58;1664164;86;21320;-76
2022/08/21 10:17:16;;;;;;;27.15;4.35;;;;;;;28.07;45.97;99866.58;1664092;85;21632;-75
2022/08/21 10:20:19;;;;;;;33.25;4.47;;;;;;;28.12;46.09;99870.20;1663874;86;21723;-76
2022/08/21 10:23:30;;;;;;;23.27;4.20;;;;;;;28.23;45.93;99870.63;1663897;86;21683;-77
2022/08/21 10:26:32;;;;;;;30.40;4.78;;;;;;;28.29;45.23;99862.06;1670713;84;21855;-74
2022/08/21 10:29:13;;;;;;;24.35;4.85;;;;;;;28.34;44.52;99862.66;1658789;85;21075;-75
2022/08/21 10:31:51;;;;;;;24.27;4.47;;;;;;;28.38;45.34;99861.92;1660848;86;21266;-75
2022/08/21 10:34:55;;;;;;;20.45;4.62;;;;;;;28.52;44.56;99858.29;1662240;86;21000;-75
2022/08/21 10:37:43;;;;;;;24.27;4.35;;;;;;;28.54;44.93;99854.78;1673337;85;21044;-78
2022/08/21 10:40:30;;;;;;;28.17;5.80;;;;;;;28.67;44.14;99848.98;1673614;85;22973;-77
2022/08/21 10:43:20;;;;;;;27.62;4.50;;;;;;;28.92;43.38;99846.30;1673436;85;21792;-75
2022/08/21 10:46:10;;;;;;;27.75;4.80;;;;;;;28.92;43.38;99846.30;1673814;85;21059;-75
2022/08/21 10:48:43;;;;;;;31.87;4.78;;;;;;;28.88;43.40;99847.86;1673249;85;21047;-74
2022/08/21 10:51:16;;;;;;;29.40;4.95;;;;;;;28.88;43.40;99847.86;1673767;85;21494;-74
2022/08/21 10:53:51;;;;;;;23.35;5.45;;;;;;;28.81;42.84;99841.25;1673666;85;21849;-76
2022/08/21 10:56:24;;;;;;;28.75;4.60;;;;;;;28.92;43.49;99837.59;1673487;85;21056;-76
2022/08/21 10:59:15;;;;;;;25.70;4.17;;;;;;;29.14;43.40;99829.39;1673516;85;21092;-76
2022/08/21 11:02:10;;;;;;;28.92;4.50;;;;;;;29.14;43.40;99829.39;1673790;85;21036;-75
2022/08/21 11:04:52;;;;;;;23.92;4.45;;;;;;;29.30;42.28;99823.56;1651634;85;21381;-75
2022/08/21 11:07:30;;;;;;;24.43;4.42;;;;;;;29.46;41.76;99828.08;1673753;85;22550;-75
2022/08/21 11:09:58;;;;;;;27.40;4.55;;;;;;;29.56;42.40;99821.92;1673509;85;21310;-76
2022/08/21 11:12:41;;;;;;;29.35;4.83;;;;;;;29.70;41.22;99822.30;1673776;85;21088;-75
2022/08/21 11:15:45;;;;;;;24.75;4.83;;;;;;;29.78;40.62;99819.09;1673625;85;21100;-76
2022/08/21 11:18:32;;;;;;;28.95;5.03;;;;;;;29.83;41.59;99825.41;1673598;85;21060;-76
2022/08/21 11:25:19;;;;;;;24.25;4.03;;;;;;;29.85;41.43;99812.89;1677785;85;21045;-75
2022/08/21 11:27:54;;;;;;;34.75;5.15;;;;;;;30.18;41.24;99813.11;1680935;85;21320;-75
2022/08/21 11:30:21;;;;;;;29.80;4.58;;;;;;;30.16;41.17;99815.28;1655152;85;21095;-74
2022/08/21 11:33:06;;;;;;;28.50;5.37;;;;;;;30.00;40.82;99807.52;1680892;84;21080;-75
2022/08/21 11:35:52;;;;;;;23.60;4.83;;;;;;;29.85;40.67;99804.17;1681175;85;21812;-76
2022/08/21 11:38:30;;;;;;;23.62;4.08;;;;;;;29.98;41.77;99801.52;1680868;85;21103;-75
2022/08/21 11:41:25;;;;;;;25.45;4.10;;;;;;;30.13;40.50;99801.66;1681193;85;21574;-76
2022/08/21 11:44:32;;;;;;;28.27;4.85;;;;;;;30.00;41.07;99808.88;1680931;85;21040;-77
2022/08/21 11:47:13;;;;;;;28.65;4.87;;;;;;;29.95;41.00;99814.86;1681102;85;21535;-77
2022/08/21 11:50:06;;;;;;;27.13;4.92;;;;;;;29.86;41.11;99808.53;1680745;85;21877;-75
2022/08/21 11:52:45;;;;;;;25.48;4.90;;;;;;;29.85;41.58;99806.90;1680871;85;21237;-76
2022/08/21 11:55:38;;;;;;;24.50;4.60;;;;;;;29.98;41.36;99810.23;1679392;85;21811;-78
2022/08/21 11:58:16;;;;;;;25.40;4.45;;;;;;;29.97;41.43;99812.14;1677686;85;21283;-77
2022/08/21 12:00:59;;;;;;;29.85;4.65;;;;;;;30.16;41.59;99810.65;1679959;85;21669;-79